Kiowa, Colorado
Current Conditions -  °F | °C
As of 1:33 PM on Sunday 21 Dec 2014 (Local Time) from KMNH Reporting Station
Clear Clear  
Wind Chill: 37°   Ceiling: Unl
Heat Index: 43°   Visibility: 10mi
Dew Point: 21°   Wind: 10mph
Humidity: 42%   Direction: 260°W
Pressure: 29.6"   Gusts: NA
Location:  39.35°N, 104.46°W
Report Text: KMNH 212033Z AUTO 26009KT 10SM CLR 06/M06 A2960 RMK AO2
Loading
Personal Weather Stations






























Interactive Weather Map New forecast layout! Learn more

10-Day Weather Forecast

Advertisements
Track Severe Weather on mobile